createdAt,value
2022-11-12T00:00:32.314Z,65.24
2022-11-12T00:03:18.140Z,66.02
2022-11-12T00:06:04.178Z,67.12
2022-11-12T00:08:49.822Z,66.57
2022-11-12T00:11:35.542Z,65.81
2022-11-12T00:14:21.675Z,65.44
2022-11-12T00:17:07.651Z,64.92
2022-11-12T00:19:54.085Z,64.15
2022-11-12T00:22:39.839Z,64.41
2022-11-12T00:25:25.502Z,64.25
2022-11-12T00:28:11.290Z,64.98
2022-11-12T00:30:57.258Z,65.71
2022-11-12T00:33:43.457Z,65.66
2022-11-12T00:36:29.476Z,67.21
2022-11-12T00:39:15.267Z,67.10
2022-11-12T00:42:01.715Z,66.93
2022-11-12T00:44:47.447Z,67.00
2022-11-12T00:47:33.245Z,66.99
2022-11-12T00:50:19.009Z,66.48
2022-11-12T00:53:04.961Z,66.53
2022-11-12T00:55:50.615Z,66.31
2022-11-12T00:58:36.272Z,65.16
2022-11-12T01:01:22.056Z,65.18
2022-11-12T01:04:08.040Z,64.97
2022-11-12T01:06:53.915Z,63.19
2022-11-12T01:09:39.557Z,63.16
2022-11-12T01:12:25.323Z,62.96
2022-11-12T01:15:11.149Z,62.99
2022-11-12T01:17:56.782Z,63.01
2022-11-12T01:20:42.394Z,63.69
2022-11-12T01:23:28.314Z,63.65
2022-11-12T01:26:15.924Z,63.65
2022-11-12T01:29:02.394Z,63.69
2022-11-12T01:31:48.017Z,64.23
2022-11-12T01:34:33.877Z,64.95
2022-11-12T01:37:19.682Z,65.11
2022-11-12T01:40:06.039Z,64.66
2022-11-12T01:42:53.057Z,65.08
2022-11-12T01:45:45.470Z,64.97
2022-11-12T01:48:38.569Z,64.88
2022-11-12T01:51:27.968Z,64.59
2022-11-12T01:54:15.303Z,65.12
2022-11-12T01:57:02.022Z,65.80
2022-11-12T01:59:49.126Z,65.22
2022-11-12T02:02:36.797Z,65.02
2022-11-12T02:05:23.278Z,65.01
2022-11-12T02:08:11.111Z,64.38
2022-11-12T02:10:56.773Z,64.03
2022-11-12T02:13:58.081Z,64.15
2022-11-12T02:16:45.453Z,64.24
2022-11-12T02:19:31.432Z,63.65
2022-11-12T02:22:17.162Z,63.61
2022-11-12T02:25:02.947Z,63.55
2022-11-12T02:27:51.661Z,63.14
2022-11-12T02:30:44.080Z,63.54
2022-11-12T02:33:29.863Z,63.97
2022-11-12T02:36:15.632Z,64.12
2022-11-12T02:39:01.701Z,63.50
2022-11-12T02:41:47.611Z,63.23
2022-11-12T02:44:33.569Z,62.80
2022-11-12T02:47:19.213Z,62.65
2022-11-12T02:50:05.438Z,62.87
2022-11-12T02:52:51.414Z,62.71
2022-11-12T02:55:37.212Z,62.49
2022-11-12T02:58:23.331Z,62.25
2022-11-12T03:01:09.107Z,62.82
2022-11-12T03:03:55.245Z,62.53
2022-11-12T03:06:41.123Z,61.93
2022-11-12T03:09:27.168Z,61.98
2022-11-12T03:14:58.792Z,61.89
2022-11-12T03:17:44.418Z,62.05
2022-11-12T03:20:30.305Z,62.45
2022-11-12T03:23:16.201Z,62.19
2022-11-12T03:26:03.341Z,62.31
2022-11-12T03:28:51.343Z,62.68
2022-11-12T03:31:37.017Z,62.30
2022-11-12T03:34:22.889Z,62.62
2022-11-12T03:37:09.613Z,63.21
2022-11-12T03:39:55.433Z,64.14
2022-11-12T03:42:48.237Z,63.94
2022-11-12T03:45:34.339Z,63.92
2022-11-12T03:48:20.125Z,63.63
2022-11-12T03:51:05.837Z,63.14
2022-11-12T03:53:51.716Z,63.36
2022-11-12T03:56:37.442Z,63.30
2022-11-12T03:59:23.094Z,63.26
2022-11-12T04:02:14.327Z,63.64
2022-11-12T04:05:19.251Z,63.37
2022-11-12T04:08:34.942Z,62.56
2022-11-12T04:11:21.086Z,62.67
2022-11-12T04:14:07.030Z,62.42
2022-11-12T04:17:11.161Z,62.50
2022-11-12T04:20:15.630Z,62.37
2022-11-12T04:23:01.599Z,62.83
2022-11-12T04:26:05.593Z,62.43
2022-11-12T04:29:10.026Z,61.92
2022-11-12T04:31:55.935Z,62.01
2022-11-12T04:34:42.113Z,61.90
2022-11-12T04:37:29.765Z,61.86
2022-11-12T04:40:42.808Z,62.26
2022-11-12T04:43:47.252Z,62.08
2022-11-12T04:46:33.263Z,61.90
2022-11-12T04:49:18.927Z,62.20
2022-11-12T04:52:07.786Z,61.80
2022-11-12T04:54:54.024Z,61.55
2022-11-12T04:57:40.040Z,61.68
2022-11-12T05:00:25.816Z,61.96
2022-11-12T05:03:11.786Z,61.86
2022-11-12T05:06:04.527Z,61.72
2022-11-12T05:08:50.539Z,61.93
2022-11-12T05:11:36.419Z,61.87
2022-11-12T05:14:23.325Z,61.94
2022-11-12T05:17:09.242Z,62.16
2022-11-12T05:19:54.908Z,62.00
2022-11-12T05:22:47.734Z,62.49
2022-11-12T05:25:36.443Z,62.07
2022-11-12T05:31:08.526Z,62.46
2022-11-12T05:33:54.572Z,61.89
2022-11-12T05:36:40.460Z,61.63
2022-11-12T05:39:26.260Z,61.53
2022-11-12T05:42:13.803Z,61.82
2022-11-12T05:45:00.207Z,62.10
2022-11-12T05:47:46.064Z,62.40
2022-11-12T05:50:39.811Z,61.87
2022-11-12T05:53:31.190Z,62.46
2022-11-12T05:56:16.953Z,62.52
2022-11-12T05:59:08.255Z,62.20
2022-11-12T06:01:54.887Z,62.05
2022-11-12T06:04:40.578Z,62.65
2022-11-12T06:07:26.225Z,62.39
2022-11-12T06:10:16.049Z,62.22
2022-11-12T06:13:05.032Z,62.02
2022-11-12T06:15:51.863Z,62.45
2022-11-12T06:18:37.591Z,62.70
2022-11-12T06:21:23.247Z,62.19
2022-11-12T06:24:08.929Z,62.21
2022-11-12T06:26:54.780Z,62.30
2022-11-12T06:29:40.705Z,62.39
2022-11-12T06:32:26.429Z,62.50
2022-11-12T06:35:12.102Z,62.93
2022-11-12T06:37:57.744Z,62.86
2022-11-12T06:40:43.755Z,62.19
2022-11-12T06:43:31.100Z,62.66
2022-11-12T06:46:17.787Z,63.04
2022-11-12T06:49:03.798Z,62.38
2022-11-12T06:51:52.553Z,62.35
2022-11-12T06:54:38.351Z,62.15
2022-11-12T06:57:24.185Z,62.27
2022-11-12T07:00:11.778Z,62.15
2022-11-12T07:02:57.866Z,62.71
2022-11-12T07:05:43.767Z,63.22
2022-11-12T07:08:30.101Z,62.98
2022-11-12T07:11:17.918Z,62.81
2022-11-12T07:14:06.870Z,62.91
2022-11-12T07:16:52.827Z,63.52
2022-11-12T07:19:38.515Z,64.00
2022-11-12T07:22:24.671Z,63.54
2022-11-12T07:25:10.187Z,62.68
2022-11-12T07:27:55.889Z,62.57
2022-11-12T07:30:41.691Z,63.04
2022-11-12T07:33:28.477Z,62.79
2022-11-12T07:36:16.099Z,68.84
2022-11-12T07:39:02.215Z,66.62
2022-11-12T07:41:47.950Z,64.69
2022-11-12T07:44:33.736Z,63.27
2022-11-12T07:47:19.655Z,63.68
2022-11-12T07:50:05.779Z,63.09
2022-11-12T07:52:51.915Z,63.37
2022-11-12T07:55:37.759Z,63.52
2022-11-12T07:58:24.675Z,62.99
2022-11-12T08:01:23.164Z,63.17
2022-11-12T08:04:10.322Z,63.16
2022-11-12T08:06:56.239Z,62.15
2022-11-12T08:09:42.276Z,62.03
2022-11-12T08:12:29.223Z,61.36
2022-11-12T08:15:15.047Z,60.94
2022-11-12T08:18:00.770Z,60.59
2022-11-12T08:20:46.564Z,60.12
2022-11-12T08:23:32.555Z,60.29
2022-11-12T08:26:19.854Z,59.99
2022-11-12T08:29:08.727Z,60.21
2022-11-12T08:31:54.714Z,60.46
2022-11-12T08:34:41.369Z,60.49
2022-11-12T08:37:27.439Z,60.37
2022-11-12T08:40:13.221Z,60.62
2022-11-12T08:43:04.162Z,60.29
2022-11-12T08:45:50.161Z,59.90
2022-11-12T08:48:36.658Z,59.86
2022-11-12T08:51:22.530Z,60.18
2022-11-12T08:54:08.611Z,61.30
2022-11-12T08:56:54.444Z,61.34
2022-11-12T08:59:39.989Z,60.25
2022-11-12T09:02:25.751Z,60.04
2022-11-12T09:05:11.286Z,68.44
2022-11-12T09:07:59.110Z,61.89
2022-11-12T09:10:45.500Z,60.07
2022-11-12T09:13:31.565Z,59.37
2022-11-12T09:16:18.106Z,59.19
2022-11-12T09:19:04.182Z,59.22
2022-11-12T09:21:49.804Z,59.36
2022-11-12T09:24:35.605Z,59.55
2022-11-12T09:27:21.259Z,59.35
2022-11-12T09:30:07.747Z,67.04
2022-11-12T09:32:57.947Z,63.42
2022-11-12T09:35:45.545Z,62.71
2022-11-12T09:38:31.540Z,60.53
2022-11-12T09:41:22.627Z,59.75
2022-11-12T09:44:15.415Z,59.29
2022-11-12T09:47:08.021Z,59.05
2022-11-12T09:49:56.639Z,59.39
2022-11-12T09:52:44.277Z,59.22
2022-11-12T09:55:36.771Z,59.47
2022-11-12T09:58:22.616Z,59.34
2022-11-12T10:01:17.240Z,59.13
2022-11-12T10:04:17.656Z,58.85
2022-11-12T10:07:09.461Z,58.58
2022-11-12T10:10:03.841Z,59.24
2022-11-12T10:13:17.594Z,58.53
2022-11-12T10:16:42.785Z,58.74
2022-11-12T10:19:49.951Z,58.56
2022-11-12T10:22:44.628Z,58.56
2022-11-12T10:25:31.406Z,59.09
2022-11-12T10:28:33.104Z,58.05
2022-11-12T10:31:22.170Z,57.65
2022-11-12T10:34:13.890Z,57.64
2022-11-12T10:37:12.155Z,57.23
2022-11-12T10:39:57.691Z,57.80
2022-11-12T10:43:00.570Z,56.69
2022-11-12T10:45:49.221Z,57.23
2022-11-12T10:48:35.647Z,57.44
2022-11-12T10:51:57.736Z,56.05
2022-11-12T10:54:43.756Z,57.71
2022-11-12T10:57:29.602Z,56.69
2022-11-12T11:00:18.979Z,56.35
2022-11-12T11:03:22.814Z,56.02
2022-11-12T11:06:14.729Z,55.95
2022-11-12T11:09:16.691Z,56.07
2022-11-12T11:12:02.856Z,55.41
2022-11-12T11:15:07.326Z,55.31
2022-11-12T11:17:53.457Z,56.12
2022-11-12T11:20:44.545Z,56.37
2022-11-12T11:23:46.297Z,55.54
2022-11-12T11:26:50.912Z,54.83
2022-11-12T11:30:15.294Z,55.43
2022-11-12T11:33:10.082Z,54.50
2022-11-12T11:36:22.112Z,54.63
2022-11-12T11:39:39.030Z,54.50
2022-11-12T11:42:38.340Z,54.60
2022-11-12T11:45:34.583Z,53.85
2022-11-12T11:48:48.382Z,53.89
2022-11-12T11:51:57.207Z,53.55
2022-11-12T11:55:21.163Z,53.79
2022-11-12T11:58:12.842Z,54.30
2022-11-12T12:01:20.377Z,54.08
2022-11-12T12:04:27.843Z,53.65
2022-11-12T12:07:45.093Z,53.49
2022-11-12T12:11:09.885Z,53.70
2022-11-12T12:14:05.123Z,53.35
2022-11-12T12:17:09.856Z,53.78
2022-11-12T12:20:14.468Z,53.66
2022-11-12T12:23:10.786Z,52.89
2022-11-12T12:26:00.402Z,52.58
2022-11-12T12:28:46.388Z,52.09
2022-11-12T12:31:46.255Z,52.45
2022-11-12T12:34:38.935Z,52.54
2022-11-12T12:37:27.877Z,52.48
2022-11-12T12:40:34.001Z,53.07
2022-11-12T12:43:32.523Z,52.70
2022-11-12T12:46:23.197Z,52.55
2022-11-12T12:49:16.167Z,52.64
2022-11-12T12:52:02.185Z,52.91
2022-11-12T12:54:47.735Z,53.06
2022-11-12T12:57:37.909Z,52.91
2022-11-12T13:00:40.345Z,52.94
2022-11-12T13:03:47.311Z,52.24
2022-11-12T13:06:39.008Z,52.49
2022-11-12T13:09:25.793Z,52.28
2022-11-12T13:12:11.552Z,51.64
2022-11-12T13:15:13.150Z,51.74
2022-11-12T13:17:59.178Z,52.38
2022-11-12T13:21:07.993Z,52.25
2022-11-12T13:24:07.174Z,52.60
2022-11-12T13:26:59.983Z,53.15
2022-11-12T13:29:47.244Z,53.15
2022-11-12T13:32:35.039Z,53.17
2022-11-12T13:35:23.680Z,52.76
2022-11-12T13:38:09.339Z,54.02
2022-11-12T13:41:16.915Z,53.60
2022-11-12T13:44:06.751Z,53.38
2022-11-12T13:46:53.483Z,53.14
2022-11-12T13:49:39.497Z,53.28
2022-11-12T13:52:25.305Z,53.31
2022-11-12T13:55:17.528Z,53.29
2022-11-12T13:58:03.451Z,52.78
2022-11-12T14:01:00.361Z,52.93
2022-11-12T14:03:48.743Z,52.52
2022-11-12T14:06:37.777Z,52.57
2022-11-12T14:09:29.884Z,52.13
2022-11-12T14:12:37.062Z,52.34
2022-11-12T14:15:31.955Z,51.69
2022-11-12T14:18:30.630Z,51.89
2022-11-12T14:21:17.906Z,52.39
2022-11-12T14:24:04.705Z,52.78
2022-11-12T14:26:51.007Z,52.56
2022-11-12T14:29:41.079Z,52.89
2022-11-12T14:32:34.947Z,52.68
2022-11-12T14:35:31.693Z,52.53
2022-11-12T14:38:21.755Z,52.43
2022-11-12T14:41:20.388Z,53.11
2022-11-12T14:44:13.937Z,52.57
2022-11-12T14:47:00.518Z,52.79
2022-11-12T14:49:48.124Z,53.56
2022-11-12T14:52:37.571Z,53.06
2022-11-12T14:55:26.886Z,52.96
2022-11-12T14:58:14.935Z,52.52
2022-11-12T15:04:51.844Z,52.77
2022-11-12T15:07:58.723Z,53.41
2022-11-12T15:10:45.060Z,53.38
2022-11-12T15:13:38.406Z,54.18
2022-11-12T15:16:27.540Z,54.02
2022-11-12T15:19:28.883Z,53.90
2022-11-12T15:22:22.199Z,54.29
2022-11-12T15:25:24.951Z,54.76
2022-11-12T15:28:14.358Z,54.63
2022-11-12T15:31:22.388Z,54.64
2022-11-12T15:34:48.098Z,54.99
2022-11-12T15:37:41.138Z,55.92
2022-11-12T15:40:26.951Z,55.78
2022-11-12T15:43:18.526Z,55.86
2022-11-12T15:46:04.276Z,56.25
2022-11-12T15:48:55.509Z,56.68
2022-11-12T15:51:41.658Z,56.39
2022-11-12T15:54:27.251Z,57.11
2022-11-12T15:57:19.026Z,59.27
2022-11-12T16:00:09.884Z,58.54
2022-11-12T16:02:59.228Z,57.84
2022-11-12T16:05:45.598Z,57.63
2022-11-12T16:08:31.432Z,57.74
2022-11-12T16:11:35.645Z,57.10
2022-11-12T16:14:24.797Z,57.09
2022-11-12T16:17:15.719Z,57.28
2022-11-12T16:20:01.749Z,57.61
2022-11-12T16:22:48.696Z,57.56
2022-11-12T16:25:36.340Z,58.01
2022-11-12T16:28:22.200Z,57.87
2022-11-12T16:31:08.275Z,58.20
2022-11-12T16:33:54.098Z,57.95
2022-11-12T16:36:39.971Z,57.80
2022-11-12T16:39:25.718Z,57.84
2022-11-12T16:42:11.347Z,58.23
2022-11-12T16:44:57.207Z,58.33
2022-11-12T16:47:45.492Z,58.46
2022-11-12T16:50:31.163Z,58.60
2022-11-12T16:53:16.770Z,58.54
2022-11-12T16:56:02.586Z,58.70
2022-11-12T16:58:49.155Z,58.56
2022-11-12T17:01:35.312Z,58.72
2022-11-12T17:04:24.286Z,58.74
2022-11-12T17:07:10.013Z,59.21
2022-11-12T17:09:55.695Z,59.17
2022-11-12T17:12:41.367Z,59.26
2022-11-12T17:15:27.239Z,59.24
2022-11-12T17:18:13.337Z,59.38
2022-11-12T17:21:09.965Z,59.23
2022-11-12T17:23:57.905Z,59.47
2022-11-12T17:26:43.498Z,59.65
2022-11-12T17:29:29.449Z,59.66
2022-11-12T17:32:15.228Z,59.84
2022-11-12T17:35:00.803Z,59.65
2022-11-12T17:37:46.508Z,59.53
2022-11-12T17:40:32.075Z,59.54
2022-11-12T17:43:17.713Z,59.68
2022-11-12T17:46:04.804Z,59.52
2022-11-12T17:48:50.815Z,59.45
2022-11-12T17:51:36.841Z,59.87
2022-11-12T17:54:22.780Z,59.80
2022-11-12T17:57:08.382Z,59.34
2022-11-12T17:59:54.276Z,59.60
2022-11-12T18:02:39.846Z,59.57
2022-11-12T18:05:25.559Z,59.76
2022-11-12T18:08:11.678Z,59.82
2022-11-12T18:10:57.647Z,59.72
2022-11-12T18:13:43.343Z,59.68
2022-11-12T18:16:29.225Z,60.12
2022-11-12T18:19:15.688Z,60.56
2022-11-12T18:22:02.313Z,60.14
2022-11-12T18:24:48.589Z,60.33
2022-11-12T18:27:34.315Z,60.72
2022-11-12T18:30:19.995Z,60.72
2022-11-12T18:33:05.728Z,60.60
2022-11-12T18:36:01.103Z,60.65
2022-11-12T18:38:49.931Z,60.73
2022-11-12T18:41:35.758Z,60.98
2022-11-12T18:44:25.858Z,60.96
2022-11-12T18:47:12.164Z,60.98
2022-11-12T18:49:57.842Z,61.06
2022-11-12T18:52:43.692Z,61.04
2022-11-12T18:55:29.402Z,61.21
2022-11-12T18:58:15.115Z,60.89
2022-11-12T19:01:05.342Z,61.00
2022-11-12T19:03:55.811Z,61.32
2022-11-12T19:06:41.699Z,61.67
2022-11-12T19:09:27.395Z,61.80
2022-11-12T19:12:13.348Z,61.69
2022-11-12T19:14:58.997Z,62.10
2022-11-12T19:17:44.868Z,61.63
2022-11-12T19:20:30.691Z,61.52
2022-11-12T19:23:16.434Z,61.79
2022-11-12T19:26:03.736Z,61.45
2022-11-12T19:28:49.682Z,61.55
2022-11-12T19:31:35.540Z,61.67
2022-11-12T19:34:21.299Z,61.66
2022-11-12T19:37:31.960Z,61.80
2022-11-12T19:40:12.908Z,61.66
2022-11-12T19:42:58.799Z,61.56
2022-11-12T19:45:44.699Z,61.68
2022-11-12T19:48:31.248Z,61.76
2022-11-12T19:51:17.670Z,63.03
2022-11-12T19:54:04.532Z,63.99
2022-11-12T19:56:50.544Z,62.12
2022-11-12T19:59:36.245Z,62.66
2022-11-12T20:02:21.926Z,61.72
2022-11-12T20:05:07.979Z,61.91
2022-11-12T20:07:55.695Z,61.80
2022-11-12T20:10:41.335Z,61.69
2022-11-12T20:13:27.510Z,61.82
2022-11-12T20:16:16.108Z,61.66
2022-11-12T20:19:03.489Z,61.73
2022-11-12T20:21:49.401Z,61.74
2022-11-12T20:24:35.158Z,61.30
2022-11-12T20:27:20.968Z,61.39
2022-11-12T20:30:07.736Z,61.27
2022-11-12T20:32:53.665Z,61.22
2022-11-12T20:35:39.445Z,61.33
2022-11-12T20:38:25.559Z,61.43
2022-11-12T20:41:22.039Z,61.59
2022-11-12T20:44:08.153Z,61.61
2022-11-12T20:46:53.900Z,61.70
2022-11-12T20:49:39.719Z,61.73
2022-11-12T20:52:25.688Z,61.60
2022-11-12T20:55:11.654Z,61.47
2022-11-12T20:57:57.755Z,61.86
2022-11-12T21:00:43.342Z,61.74
2022-11-12T21:03:29.350Z,61.78
2022-11-12T21:06:17.471Z,61.69
2022-11-12T21:09:03.520Z,61.82
2022-11-12T21:11:49.695Z,61.12
2022-11-12T21:14:36.006Z,61.24
2022-11-12T21:17:21.684Z,61.34
2022-11-12T21:20:07.662Z,61.23
2022-11-12T21:22:53.394Z,61.07
2022-11-12T21:25:40.084Z,60.90
2022-11-12T21:28:26.360Z,60.81
2022-11-12T21:31:20.585Z,60.77
2022-11-12T21:34:07.057Z,60.74
2022-11-12T21:36:52.839Z,60.39
2022-11-12T21:39:38.631Z,60.93
2022-11-12T21:42:24.386Z,60.79
2022-11-12T21:45:10.582Z,60.83
2022-11-12T21:47:56.738Z,61.16
2022-11-12T21:50:42.642Z,60.86
2022-11-12T21:53:28.387Z,60.99
2022-11-12T21:56:17.603Z,61.17
2022-11-12T21:59:04.365Z,61.15
2022-11-12T22:01:49.951Z,60.59
2022-11-12T22:04:35.631Z,60.90
2022-11-12T22:07:21.319Z,60.71
2022-11-12T22:10:07.803Z,61.33
2022-11-12T22:13:24.860Z,61.45
2022-11-12T22:15:59.339Z,61.61
2022-11-12T22:18:49.940Z,61.82
2022-11-12T22:21:39.941Z,61.26
2022-11-12T22:24:26.082Z,61.35
2022-11-12T22:27:11.620Z,61.42
2022-11-12T22:29:57.431Z,61.09
2022-11-12T22:32:43.088Z,61.17
2022-11-12T22:35:28.654Z,61.64
2022-11-12T22:38:14.458Z,61.04
2022-11-12T22:41:01.788Z,61.15
2022-11-12T22:43:53.162Z,61.07
2022-11-12T22:46:39.122Z,61.35
2022-11-12T22:49:24.853Z,61.15
2022-11-12T22:52:10.386Z,61.25
2022-11-12T22:54:56.031Z,61.22
2022-11-12T22:57:41.718Z,61.06
2022-11-12T23:00:31.895Z,60.89
2022-11-12T23:03:17.730Z,61.34
2022-11-12T23:06:05.798Z,61.10
2022-11-12T23:08:53.348Z,61.44
2022-11-12T23:11:39.325Z,61.28
2022-11-12T23:14:25.075Z,60.97
2022-11-12T23:17:10.711Z,60.89
2022-11-12T23:19:56.673Z,60.80
2022-11-12T23:22:42.583Z,60.77
2022-11-12T23:25:28.520Z,60.96
2022-11-12T23:28:14.247Z,61.02
2022-11-12T23:31:00.355Z,60.74
2022-11-12T23:33:47.625Z,60.65
2022-11-12T23:36:33.483Z,60.67
2022-11-12T23:39:19.186Z,60.70
2022-11-12T23:42:05.350Z,60.66
2022-11-12T23:44:50.955Z,60.87
2022-11-12T23:47:36.509Z,61.04
2022-11-12T23:50:22.327Z,61.04
2022-11-12T23:53:07.904Z,60.90
2022-11-12T23:55:54.127Z,61.12
2022-11-12T23:58:41.073Z,61.53
